sensor_id;sensor_type;location;lat;lon;timestamp;temperature;humidity
12682;DHT22;6405;59.208;18.216;2022-07-29T00:01:16;8.40;99.90
12682;DHT22;6405;59.208;18.216;2022-07-29T00:03:43;8.40;99.90
12682;DHT22;6405;59.208;18.216;2022-07-29T00:06:09;8.40;99.90
12682;DHT22;6405;59.208;18.216;2022-07-29T00:08:36;8.40;99.90
12682;DHT22;6405;59.208;18.216;2022-07-29T00:11:01;8.30;99.90
12682;DHT22;6405;59.208;18.216;2022-07-29T00:13:29;8.30;99.90
12682;DHT22;6405;59.208;18.216;2022-07-29T00:15:55;8.30;99.90
12682;DHT22;6405;59.208;18.216;2022-07-29T00:18:21;8.20;99.90
12682;DHT22;6405;59.208;18.216;2022-07-29T00:20:48;8.20;99.90
12682;DHT22;6405;59.208;18.216;2022-07-29T00:23:14;8.20;99.90
12682;DHT22;6405;59.208;18.216;2022-07-29T00:25:41;8.40;99.90
12682;DHT22;6405;59.208;18.216;2022-07-29T00:28:07;8.20;99.90
12682;DHT22;6405;59.208;18.216;2022-07-29T00:30:35;8.20;99.90
12682;DHT22;6405;59.208;18.216;2022-07-29T00:33:01;8.20;99.90
12682;DHT22;6405;59.208;18.216;2022-07-29T00:35:28;8.10;99.90
12682;DHT22;6405;59.208;18.216;2022-07-29T00:38:12;8.10;99.90
12682;DHT22;6405;59.208;18.216;2022-07-29T00:40:40;8.10;99.90
12682;DHT22;6405;59.208;18.216;2022-07-29T00:43:06;8.10;99.90
12682;DHT22;6405;59.208;18.216;2022-07-29T00:45:34;8.00;99.90
12682;DHT22;6405;59.208;18.216;2022-07-29T00:48:03;8.20;99.90
12682;DHT22;6405;59.208;18.216;2022-07-29T00:50:32;8.00;99.90
12682;DHT22;6405;59.208;18.216;2022-07-29T00:53:01;8.00;99.90
12682;DHT22;6405;59.208;18.216;2022-07-29T00:55:29;8.00;99.90
12682;DHT22;6405;59.208;18.216;2022-07-29T00:57:55;7.90;99.90
12682;DHT22;6405;59.208;18.216;2022-07-29T01:00:25;7.90;99.90
12682;DHT22;6405;59.208;18.216;2022-07-29T01:02:51;7.90;99.90
12682;DHT22;6405;59.208;18.216;2022-07-29T01:05:19;7.90;99.90
12682;DHT22;6405;59.208;18.216;2022-07-29T01:07:46;7.90;99.90
12682;DHT22;6405;59.208;18.216;2022-07-29T01:10:14;7.90;99.90
12682;DHT22;6405;59.208;18.216;2022-07-29T01:12:40;7.80;99.90
12682;DHT22;6405;59.208;18.216;2022-07-29T01:15:09;8.10;99.90
12682;DHT22;6405;59.208;18.216;2022-07-29T01:20:51;7.80;99.90
12682;DHT22;6405;59.208;18.216;2022-07-29T01:28:47;7.70;99.90
12682;DHT22;6405;59.208;18.216;2022-07-29T01:31:22;7.70;99.90
12682;DHT22;6405;59.208;18.216;2022-07-29T01:33:57;7.70;99.90
12682;DHT22;6405;59.208;18.216;2022-07-29T01:36:37;7.70;99.90
12682;DHT22;6405;59.208;18.216;2022-07-29T01:39:14;7.60;99.90
12682;DHT22;6405;59.208;18.216;2022-07-29T01:41:55;7.60;99.90
12682;DHT22;6405;59.208;18.216;2022-07-29T01:44:31;7.60;99.90
12682;DHT22;6405;59.208;18.216;2022-07-29T01:47:00;7.60;99.90
12682;DHT22;6405;59.208;18.216;2022-07-29T01:49:34;7.60;99.90
12682;DHT22;6405;59.208;18.216;2022-07-29T01:52:05;7.60;99.90
12682;DHT22;6405;59.208;18.216;2022-07-29T01:54:42;7.50;99.90
12682;DHT22;6405;59.208;18.216;2022-07-29T01:57:13;7.50;99.90
12682;DHT22;6405;59.208;18.216;2022-07-29T01:59:41;7.50;99.90
12682;DHT22;6405;59.208;18.216;2022-07-29T02:02:10;7.50;99.90
12682;DHT22;6405;59.208;18.216;2022-07-29T02:04:37;7.50;99.90
12682;DHT22;6405;59.208;18.216;2022-07-29T02:07:06;7.50;99.90
12682;DHT22;6405;59.208;18.216;2022-07-29T02:09:34;7.40;99.90
12682;DHT22;6405;59.208;18.216;2022-07-29T02:12:03;7.40;99.90
12682;DHT22;6405;59.208;18.216;2022-07-29T02:14:34;7.40;99.90
12682;DHT22;6405;59.208;18.216;2022-07-29T02:17:02;7.40;99.90
12682;DHT22;6405;59.208;18.216;2022-07-29T02:19:31;7.40;99.90
12682;DHT22;6405;59.208;18.216;2022-07-29T02:21:58;7.50;99.90
12682;DHT22;6405;59.208;18.216;2022-07-29T02:24:26;7.30;99.90
12682;DHT22;6405;59.208;18.216;2022-07-29T02:26:56;7.30;99.90
12682;DHT22;6405;59.208;18.216;2022-07-29T02:29:26;7.30;99.90
12682;DHT22;6405;59.208;18.216;2022-07-29T02:31:55;7.30;99.90
12682;DHT22;6405;59.208;18.216;2022-07-29T02:34:24;7.40;99.90
12682;DHT22;6405;59.208;18.216;2022-07-29T02:36:52;7.30;99.90
12682;DHT22;6405;59.208;18.216;2022-07-29T02:39:20;7.20;99.90
12682;DHT22;6405;59.208;18.216;2022-07-29T02:41:58;7.40;99.90
12682;DHT22;6405;59.208;18.216;2022-07-29T02:44:26;7.20;99.90
12682;DHT22;6405;59.208;18.216;2022-07-29T02:52:39;7.20;99.90
12682;DHT22;6405;59.208;18.216;2022-07-29T02:57:58;7.20;99.90
12682;DHT22;6405;59.208;18.216;2022-07-29T03:00:29;7.20;99.90
12682;DHT22;6405;59.208;18.216;2022-07-29T03:02:59;7.20;99.90
12682;DHT22;6405;59.208;18.216;2022-07-29T03:05:26;7.20;99.90
12682;DHT22;6405;59.208;18.216;2022-07-29T03:07:56;7.30;99.90
12682;DHT22;6405;59.208;18.216;2022-07-29T03:10:26;7.30;99.90
12682;DHT22;6405;59.208;18.216;2022-07-29T03:12:55;7.30;99.90
12682;DHT22;6405;59.208;18.216;2022-07-29T03:15:22;7.40;99.90
12682;DHT22;6405;59.208;18.216;2022-07-29T03:17:50;7.30;99.90
12682;DHT22;6405;59.208;18.216;2022-07-29T03:20:19;7.30;99.90
12682;DHT22;6405;59.208;18.216;2022-07-29T03:22:45;7.30;99.90
12682;DHT22;6405;59.208;18.216;2022-07-29T03:25:17;7.30;99.90
12682;DHT22;6405;59.208;18.216;2022-07-29T03:27:45;7.30;99.90
12682;DHT22;6405;59.208;18.216;2022-07-29T03:30:12;7.40;99.90
12682;DHT22;6405;59.208;18.216;2022-07-29T03:32:41;7.40;99.90
12682;DHT22;6405;59.208;18.216;2022-07-29T03:35:07;7.40;99.90
12682;DHT22;6405;59.208;18.216;2022-07-29T03:37:34;7.50;99.90
12682;DHT22;6405;59.208;18.216;2022-07-29T03:40:07;7.50;99.90
12682;DHT22;6405;59.208;18.216;2022-07-29T03:42:37;7.50;99.90
12682;DHT22;6405;59.208;18.216;2022-07-29T03:45:09;7.50;99.90
12682;DHT22;6405;59.208;18.216;2022-07-29T03:47:39;7.50;99.90
12682;DHT22;6405;59.208;18.216;2022-07-29T03:50:07;7.60;99.90
12682;DHT22;6405;59.208;18.216;2022-07-29T03:52:35;7.60;99.90
12682;DHT22;6405;59.208;18.216;2022-07-29T03:55:03;7.60;99.90
12682;DHT22;6405;59.208;18.216;2022-07-29T03:57:30;7.70;99.90
12682;DHT22;6405;59.208;18.216;2022-07-29T04:00:00;7.70;99.90
12682;DHT22;6405;59.208;18.216;2022-07-29T04:02:27;7.80;99.90
12682;DHT22;6405;59.208;18.216;2022-07-29T04:04:53;7.80;99.90
12682;DHT22;6405;59.208;18.216;2022-07-29T04:07:20;7.80;99.90
12682;DHT22;6405;59.208;18.216;2022-07-29T04:09:46;7.90;99.90
12682;DHT22;6405;59.208;18.216;2022-07-29T04:12:13;7.90;99.90
12682;DHT22;6405;59.208;18.216;2022-07-29T04:14:38;8.00;99.90
12682;DHT22;6405;59.208;18.216;2022-07-29T04:17:05;8.00;99.90
12682;DHT22;6405;59.208;18.216;2022-07-29T04:19:32;8.10;99.90
12682;DHT22;6405;59.208;18.216;2022-07-29T04:22:00;8.20;99.90
12682;DHT22;6405;59.208;18.216;2022-07-29T04:24:27;8.20;99.90
12682;DHT22;6405;59.208;18.216;2022-07-29T04:26:54;8.30;99.90
12682;DHT22;6405;59.208;18.216;2022-07-29T04:29:21;8.30;99.90
12682;DHT22;6405;59.208;18.216;2022-07-29T04:31:48;8.40;99.90
12682;DHT22;6405;59.208;18.216;2022-07-29T04:34:15;8.50;99.90
12682;DHT22;6405;59.208;18.216;2022-07-29T04:36:42;8.60;99.90
12682;DHT22;6405;59.208;18.216;2022-07-29T04:39:09;8.70;99.90
12682;DHT22;6405;59.208;18.216;2022-07-29T04:41:37;8.70;99.90
12682;DHT22;6405;59.208;18.216;2022-07-29T04:44:02;8.80;99.90
12682;DHT22;6405;59.208;18.216;2022-07-29T04:46:31;8.90;99.90
12682;DHT22;6405;59.208;18.216;2022-07-29T04:48:58;9.00;99.90
12682;DHT22;6405;59.208;18.216;2022-07-29T04:51:25;9.00;99.90
12682;DHT22;6405;59.208;18.216;2022-07-29T04:53:52;9.10;99.90
12682;DHT22;6405;59.208;18.216;2022-07-29T04:56:19;9.20;99.90
12682;DHT22;6405;59.208;18.216;2022-07-29T04:58:46;9.30;99.90
12682;DHT22;6405;59.208;18.216;2022-07-29T05:01:12;9.40;99.90
12682;DHT22;6405;59.208;18.216;2022-07-29T05:03:38;9.50;99.90
12682;DHT22;6405;59.208;18.216;2022-07-29T05:06:06;9.60;99.90
12682;DHT22;6405;59.208;18.216;2022-07-29T05:08:33;9.70;99.90
12682;DHT22;6405;59.208;18.216;2022-07-29T05:11:01;9.80;99.90
12682;DHT22;6405;59.208;18.216;2022-07-29T05:13:28;9.90;99.90
12682;DHT22;6405;59.208;18.216;2022-07-29T05:15:55;10.00;99.90
12682;DHT22;6405;59.208;18.216;2022-07-29T05:18:21;10.10;99.90
12682;DHT22;6405;59.208;18.216;2022-07-29T05:20:49;10.20;99.90
12682;DHT22;6405;59.208;18.216;2022-07-29T05:23:15;10.30;99.90
12682;DHT22;6405;59.208;18.216;2022-07-29T05:25:42;10.40;99.90
12682;DHT22;6405;59.208;18.216;2022-07-29T05:28:10;10.50;99.90
12682;DHT22;6405;59.208;18.216;2022-07-29T05:30:37;10.60;99.90
12682;DHT22;6405;59.208;18.216;2022-07-29T05:33:03;10.80;99.90
12682;DHT22;6405;59.208;18.216;2022-07-29T05:35:29;10.90;99.90
12682;DHT22;6405;59.208;18.216;2022-07-29T05:37:56;11.00;99.90
12682;DHT22;6405;59.208;18.216;2022-07-29T05:40:23;11.10;99.90
12682;DHT22;6405;59.208;18.216;2022-07-29T05:42:50;11.30;99.90
12682;DHT22;6405;59.208;18.216;2022-07-29T05:45:17;11.40;99.90
12682;DHT22;6405;59.208;18.216;2022-07-29T05:47:43;11.50;99.90
12682;DHT22;6405;59.208;18.216;2022-07-29T05:50:10;11.60;99.90
12682;DHT22;6405;59.208;18.216;2022-07-29T05:52:36;11.70;99.90
12682;DHT22;6405;59.208;18.216;2022-07-29T05:55:04;11.80;99.90
12682;DHT22;6405;59.208;18.216;2022-07-29T05:57:32;12.00;99.90
12682;DHT22;6405;59.208;18.216;2022-07-29T05:59:59;12.10;99.90
12682;DHT22;6405;59.208;18.216;2022-07-29T06:02:26;12.20;99.90
12682;DHT22;6405;59.208;18.216;2022-07-29T06:04:53;12.30;99.90
12682;DHT22;6405;59.208;18.216;2022-07-29T06:07:19;12.40;99.90
12682;DHT22;6405;59.208;18.216;2022-07-29T06:09:45;12.50;99.90
12682;DHT22;6405;59.208;18.216;2022-07-29T06:12:13;12.60;99.90
12682;DHT22;6405;59.208;18.216;2022-07-29T06:14:40;12.70;99.90
12682;DHT22;6405;59.208;18.216;2022-07-29T06:17:06;12.80;99.90
12682;DHT22;6405;59.208;18.216;2022-07-29T06:19:36;12.90;99.90
12682;DHT22;6405;59.208;18.216;2022-07-29T06:22:04;13.00;99.90
12682;DHT22;6405;59.208;18.216;2022-07-29T06:24:30;13.10;99.90
12682;DHT22;6405;59.208;18.216;2022-07-29T06:26:58;13.20;99.90
12682;DHT22;6405;59.208;18.216;2022-07-29T06:29:25;13.30;99.90
12682;DHT22;6405;59.208;18.216;2022-07-29T06:31:52;13.40;99.90
12682;DHT22;6405;59.208;18.216;2022-07-29T06:34:19;13.50;99.90
12682;DHT22;6405;59.208;18.216;2022-07-29T06:36:46;13.60;99.90
12682;DHT22;6405;59.208;18.216;2022-07-29T06:39:12;13.70;99.90
12682;DHT22;6405;59.208;18.216;2022-07-29T06:41:39;13.70;99.90
12682;DHT22;6405;59.208;18.216;2022-07-29T06:44:05;13.80;99.90
12682;DHT22;6405;59.208;18.216;2022-07-29T06:46:32;13.90;99.90
12682;DHT22;6405;59.208;18.216;2022-07-29T06:48:59;13.90;99.90
12682;DHT22;6405;59.208;18.216;2022-07-29T06:51:26;14.20;99.90
12682;DHT22;6405;59.208;18.216;2022-07-29T06:53:54;14.20;99.90
12682;DHT22;6405;59.208;18.216;2022-07-29T06:56:20;14.40;99.90
12682;DHT22;6405;59.208;18.216;2022-07-29T06:58:47;14.50;99.90
12682;DHT22;6405;59.208;18.216;2022-07-29T07:01:14;14.70;99.90
12682;DHT22;6405;59.208;18.216;2022-07-29T07:03:41;14.70;99.90
12682;DHT22;6405;59.208;18.216;2022-07-29T07:06:08;14.70;99.90
12682;DHT22;6405;59.208;18.216;2022-07-29T07:08:33;14.70;99.90
12682;DHT22;6405;59.208;18.216;2022-07-29T07:10:59;14.90;99.90
12682;DHT22;6405;59.208;18.216;2022-07-29T07:13:26;15.00;99.90
12682;DHT22;6405;59.208;18.216;2022-07-29T07:15:54;15.10;99.90
12682;DHT22;6405;59.208;18.216;2022-07-29T07:18:20;15.20;99.90
12682;DHT22;6405;59.208;18.216;2022-07-29T07:20:47;15.30;99.90
12682;DHT22;6405;59.208;18.216;2022-07-29T07:23:13;15.20;99.90
12682;DHT22;6405;59.208;18.216;2022-07-29T07:25:40;15.30;99.90
12682;DHT22;6405;59.208;18.216;2022-07-29T07:28:07;15.30;99.90
12682;DHT22;6405;59.208;18.216;2022-07-29T07:30:32;15.40;99.90
12682;DHT22;6405;59.208;18.216;2022-07-29T07:33:00;15.50;99.90
12682;DHT22;6405;59.208;18.216;2022-07-29T07:35:27;15.60;99.90
12682;DHT22;6405;59.208;18.216;2022-07-29T07:37:56;15.70;99.90
12682;DHT22;6405;59.208;18.216;2022-07-29T07:40:23;15.70;99.90
12682;DHT22;6405;59.208;18.216;2022-07-29T07:42:49;15.80;99.90
12682;DHT22;6405;59.208;18.216;2022-07-29T07:45:15;15.90;99.90
12682;DHT22;6405;59.208;18.216;2022-07-29T07:47:42;16.00;99.90
12682;DHT22;6405;59.208;18.216;2022-07-29T07:50:09;16.10;99.90
12682;DHT22;6405;59.208;18.216;2022-07-29T07:52:52;16.30;99.90
12682;DHT22;6405;59.208;18.216;2022-07-29T07:55:19;16.30;99.90
12682;DHT22;6405;59.208;18.216;2022-07-29T07:57:45;16.40;99.90
12682;DHT22;6405;59.208;18.216;2022-07-29T08:00:13;16.50;99.90
12682;DHT22;6405;59.208;18.216;2022-07-29T08:02:40;16.50;99.90
12682;DHT22;6405;59.208;18.216;2022-07-29T08:05:07;16.60;99.90
12682;DHT22;6405;59.208;18.216;2022-07-29T08:07:34;16.70;99.90
12682;DHT22;6405;59.208;18.216;2022-07-29T08:10:00;16.90;99.90
12682;DHT22;6405;59.208;18.216;2022-07-29T08:12:28;17.00;99.90
12682;DHT22;6405;59.208;18.216;2022-07-29T08:14:54;17.20;99.90
12682;DHT22;6405;59.208;18.216;2022-07-29T08:17:21;17.50;99.90
12682;DHT22;6405;59.208;18.216;2022-07-29T08:19:47;17.90;99.90
12682;DHT22;6405;59.208;18.216;2022-07-29T08:22:15;18.30;99.90
12682;DHT22;6405;59.208;18.216;2022-07-29T08:24:42;18.60;99.90
12682;DHT22;6405;59.208;18.216;2022-07-29T08:27:22;19.10;99.90
12682;DHT22;6405;59.208;18.216;2022-07-29T08:29:48;19.60;99.90
12682;DHT22;6405;59.208;18.216;2022-07-29T08:32:15;19.90;99.90
12682;DHT22;6405;59.208;18.216;2022-07-29T08:34:42;20.00;99.90
12682;DHT22;6405;59.208;18.216;2022-07-29T08:37:13;20.10;99.90
12682;DHT22;6405;59.208;18.216;2022-07-29T08:39:39;20.00;99.90
12682;DHT22;6405;59.208;18.216;2022-07-29T08:42:06;20.10;99.90
12682;DHT22;6405;59.208;18.216;2022-07-29T08:44:33;20.10;99.90
12682;DHT22;6405;59.208;18.216;2022-07-29T08:46:59;20.10;99.90
12682;DHT22;6405;59.208;18.216;2022-07-29T08:49:25;20.20;99.90
12682;DHT22;6405;59.208;18.216;2022-07-29T08:51:53;20.30;99.90
12682;DHT22;6405;59.208;18.216;2022-07-29T08:54:21;20.70;99.90
12682;DHT22;6405;59.208;18.216;2022-07-29T08:56:50;20.90;99.90
12682;DHT22;6405;59.208;18.216;2022-07-29T08:59:19;21.00;99.90
12682;DHT22;6405;59.208;18.216;2022-07-29T09:01:48;21.30;99.90
12682;DHT22;6405;59.208;18.216;2022-07-29T09:04:20;21.50;99.90
12682;DHT22;6405;59.208;18.216;2022-07-29T09:06:49;21.50;99.90
12682;DHT22;6405;59.208;18.216;2022-07-29T09:09:16;21.80;99.90
12682;DHT22;6405;59.208;18.216;2022-07-29T09:11:43;21.50;99.90
12682;DHT22;6405;59.208;18.216;2022-07-29T09:14:12;21.70;99.90
12682;DHT22;6405;59.208;18.216;2022-07-29T09:16:47;21.90;99.90
12682;DHT22;6405;59.208;18.216;2022-07-29T09:19:33;22.20;99.90
12682;DHT22;6405;59.208;18.216;2022-07-29T09:22:05;22.00;99.90
12682;DHT22;6405;59.208;18.216;2022-07-29T09:24:39;21.80;99.90
12682;DHT22;6405;59.208;18.216;2022-07-29T09:27:25;21.50;99.90
12682;DHT22;6405;59.208;18.216;2022-07-29T09:29:58;21.40;99.90
12682;DHT22;6405;59.208;18.216;2022-07-29T09:32:25;21.00;99.90
12682;DHT22;6405;59.208;18.216;2022-07-29T09:35:22;20.70;99.90
12682;DHT22;6405;59.208;18.216;2022-07-29T09:37:49;20.40;99.90
12682;DHT22;6405;59.208;18.216;2022-07-29T09:40:19;20.30;99.90
12682;DHT22;6405;59.208;18.216;2022-07-29T09:42:49;20.20;99.90
12682;DHT22;6405;59.208;18.216;2022-07-29T09:45:31;20.10;99.90
12682;DHT22;6405;59.208;18.216;2022-07-29T09:47:58;20.20;99.90
12682;DHT22;6405;59.208;18.216;2022-07-29T09:50:39;20.40;99.90
12682;DHT22;6405;59.208;18.216;2022-07-29T09:53:08;20.30;99.90
12682;DHT22;6405;59.208;18.216;2022-07-29T09:55:51;20.30;99.90
12682;DHT22;6405;59.208;18.216;2022-07-29T09:58:19;20.30;99.90
12682;DHT22;6405;59.208;18.216;2022-07-29T10:00:45;20.20;99.90
12682;DHT22;6405;59.208;18.216;2022-07-29T10:03:14;20.10;99.90
12682;DHT22;6405;59.208;18.216;2022-07-29T10:05:43;20.10;99.90
12682;DHT22;6405;59.208;18.216;2022-07-29T10:08:11;20.20;99.90
12682;DHT22;6405;59.208;18.216;2022-07-29T10:10:40;20.30;99.90
12682;DHT22;6405;59.208;18.216;2022-07-29T10:13:13;20.50;99.90
12682;DHT22;6405;59.208;18.216;2022-07-29T10:15:42;20.80;99.90
12682;DHT22;6405;59.208;18.216;2022-07-29T10:18:13;20.60;99.90
12682;DHT22;6405;59.208;18.216;2022-07-29T10:20:41;20.80;99.90
12682;DHT22;6405;59.208;18.216;2022-07-29T10:23:08;21.10;99.90
12682;DHT22;6405;59.208;18.216;2022-07-29T10:25:35;21.40;99.90
12682;DHT22;6405;59.208;18.216;2022-07-29T10:28:02;21.90;99.90
12682;DHT22;6405;59.208;18.216;2022-07-29T10:30:31;22.30;99.90
12682;DHT22;6405;59.208;18.216;2022-07-29T10:44:18;22.10;99.90
12682;DHT22;6405;59.208;18.216;2022-07-29T10:46:46;22.00;99.90
12682;DHT22;6405;59.208;18.216;2022-07-29T10:49:23;21.70;99.90
12682;DHT22;6405;59.208;18.216;2022-07-29T10:52:02;21.40;99.90
12682;DHT22;6405;59.208;18.216;2022-07-29T10:54:37;21.10;99.90
12682;DHT22;6405;59.208;18.216;2022-07-29T10:57:24;20.90;99.90
12682;DHT22;6405;59.208;18.216;2022-07-29T11:05:16;20.30;99.90
12682;DHT22;6405;59.208;18.216;2022-07-29T11:10:39;20.40;99.90
12682;DHT22;6405;59.208;18.216;2022-07-29T11:13:07;20.80;99.90
12682;DHT22;6405;59.208;18.216;2022-07-29T11:15:56;21.40;99.90
12682;DHT22;6405;59.208;18.216;2022-07-29T11:18:23;22.00;99.90
12682;DHT22;6405;59.208;18.216;2022-07-29T11:20:51;22.40;99.90
12682;DHT22;6405;59.208;18.216;2022-07-29T11:23:26;22.70;99.90
12682;DHT22;6405;59.208;18.216;2022-07-29T11:31:36;22.80;99.90
12682;DHT22;6405;59.208;18.216;2022-07-29T11:34:32;22.40;99.90
12682;DHT22;6405;59.208;18.216;2022-07-29T11:39:38;21.60;99.90
12682;DHT22;6405;59.208;18.216;2022-07-29T11:45:14;22.20;99.90
12682;DHT22;6405;59.208;18.216;2022-07-29T11:48:02;22.40;99.90
12682;DHT22;6405;59.208;18.216;2022-07-29T11:50:33;22.10;99.90
12682;DHT22;6405;59.208;18.216;2022-07-29T11:53:01;21.90;99.90
12682;DHT22;6405;59.208;18.216;2022-07-29T11:55:29;21.80;99.90
12682;DHT22;6405;59.208;18.216;2022-07-29T11:57:59;21.80;99.90
12682;DHT22;6405;59.208;18.216;2022-07-29T12:00:40;21.80;99.90
12682;DHT22;6405;59.208;18.216;2022-07-29T12:03:09;22.40;99.90
12682;DHT22;6405;59.208;18.216;2022-07-29T12:05:45;22.80;99.90
12682;DHT22;6405;59.208;18.216;2022-07-29T12:08:16;22.40;99.90
12682;DHT22;6405;59.208;18.216;2022-07-29T12:10:47;22.50;99.90
12682;DHT22;6405;59.208;18.216;2022-07-29T12:13:15;23.00;99.90
12682;DHT22;6405;59.208;18.216;2022-07-29T12:15:50;23.00;99.90
12682;DHT22;6405;59.208;18.216;2022-07-29T12:18:18;23.00;99.90
12682;DHT22;6405;59.208;18.216;2022-07-29T12:20:46;22.70;99.90
12682;DHT22;6405;59.208;18.216;2022-07-29T12:23:13;22.30;99.90
12682;DHT22;6405;59.208;18.216;2022-07-29T12:25:42;22.40;99.90
12682;DHT22;6405;59.208;18.216;2022-07-29T12:28:12;22.70;99.90
12682;DHT22;6405;59.208;18.216;2022-07-29T12:30:45;22.30;99.90
12682;DHT22;6405;59.208;18.216;2022-07-29T12:33:13;22.00;99.90
12682;DHT22;6405;59.208;18.216;2022-07-29T12:35:42;21.70;99.90
12682;DHT22;6405;59.208;18.216;2022-07-29T12:38:10;22.00;99.90
12682;DHT22;6405;59.208;18.216;2022-07-29T12:40:38;22.20;99.90
12682;DHT22;6405;59.208;18.216;2022-07-29T12:45:42;22.70;99.90
12682;DHT22;6405;59.208;18.216;2022-07-29T12:48:09;23.00;99.90
12682;DHT22;6405;59.208;18.216;2022-07-29T12:50:53;23.10;99.90
12682;DHT22;6405;59.208;18.216;2022-07-29T12:53:20;23.10;99.90
12682;DHT22;6405;59.208;18.216;2022-07-29T12:55:50;23.00;99.90
12682;DHT22;6405;59.208;18.216;2022-07-29T12:58:43;23.10;99.90
12682;DHT22;6405;59.208;18.216;2022-07-29T13:01:20;22.90;99.90
12682;DHT22;6405;59.208;18.216;2022-07-29T13:03:57;23.20;99.90
12682;DHT22;6405;59.208;18.216;2022-07-29T13:06:43;23.00;99.90
12682;DHT22;6405;59.208;18.216;2022-07-29T13:11:45;23.10;99.90
12682;DHT22;6405;59.208;18.216;2022-07-29T13:14:13;22.90;99.90
12682;DHT22;6405;59.208;18.216;2022-07-29T13:17:00;22.90;99.90
12682;DHT22;6405;59.208;18.216;2022-07-29T13:19:42;23.00;99.90
12682;DHT22;6405;59.208;18.216;2022-07-29T13:22:10;23.10;99.90
12682;DHT22;6405;59.208;18.216;2022-07-29T13:25:00;23.00;99.90
12682;DHT22;6405;59.208;18.216;2022-07-29T13:27:31;23.10;99.90
12682;DHT22;6405;59.208;18.216;2022-07-29T13:30:00;23.00;99.90
12682;DHT22;6405;59.208;18.216;2022-07-29T13:32:29;22.60;99.90
12682;DHT22;6405;59.208;18.216;2022-07-29T13:34:57;22.50;99.90
12682;DHT22;6405;59.208;18.216;2022-07-29T13:37:24;22.40;99.90
12682;DHT22;6405;59.208;18.216;2022-07-29T13:39:52;22.60;99.90
12682;DHT22;6405;59.208;18.216;2022-07-29T13:42:21;22.00;99.90
12682;DHT22;6405;59.208;18.216;2022-07-29T13:44:47;21.60;99.90
12682;DHT22;6405;59.208;18.216;2022-07-29T13:47:19;21.90;99.90
12682;DHT22;6405;59.208;18.216;2022-07-29T13:49:45;22.20;99.90
12682;DHT22;6405;59.208;18.216;2022-07-29T13:52:13;22.10;99.90
12682;DHT22;6405;59.208;18.216;2022-07-29T13:54:41;22.00;99.90
12682;DHT22;6405;59.208;18.216;2022-07-29T13:57:09;21.60;99.90
12682;DHT22;6405;59.208;18.216;2022-07-29T13:59:41;21.30;99.90
12682;DHT22;6405;59.208;18.216;2022-07-29T14:02:09;21.60;99.90
12682;DHT22;6405;59.208;18.216;2022-07-29T14:04:36;21.70;99.90
12682;DHT22;6405;59.208;18.216;2022-07-29T14:07:03;21.10;99.90
12682;DHT22;6405;59.208;18.216;2022-07-29T14:09:30;20.80;99.90
12682;DHT22;6405;59.208;18.216;2022-07-29T14:11:56;20.50;99.90
12682;DHT22;6405;59.208;18.216;2022-07-29T14:14:24;20.30;99.90
12682;DHT22;6405;59.208;18.216;2022-07-29T14:16:51;20.00;99.90
12682;DHT22;6405;59.208;18.216;2022-07-29T14:19:17;20.30;99.90
12682;DHT22;6405;59.208;18.216;2022-07-29T14:21:44;20.80;99.90
12682;DHT22;6405;59.208;18.216;2022-07-29T14:24:10;21.10;99.90
12682;DHT22;6405;59.208;18.216;2022-07-29T14:26:37;21.50;99.90
12682;DHT22;6405;59.208;18.216;2022-07-29T14:29:04;21.60;99.90
12682;DHT22;6405;59.208;18.216;2022-07-29T14:31:31;21.80;99.90
12682;DHT22;6405;59.208;18.216;2022-07-29T14:33:58;22.10;99.90
12682;DHT22;6405;59.208;18.216;2022-07-29T14:36:24;22.30;99.90
12682;DHT22;6405;59.208;18.216;2022-07-29T14:38:50;22.30;99.90
12682;DHT22;6405;59.208;18.216;2022-07-29T14:41:16;22.40;99.90
12682;DHT22;6405;59.208;18.216;2022-07-29T14:43:43;22.30;99.90
12682;DHT22;6405;59.208;18.216;2022-07-29T14:46:09;22.30;99.90
12682;DHT22;6405;59.208;18.216;2022-07-29T14:48:35;22.30;99.90
12682;DHT22;6405;59.208;18.216;2022-07-29T14:51:02;22.40;99.90
12682;DHT22;6405;59.208;18.216;2022-07-29T14:53:29;22.40;99.90
12682;DHT22;6405;59.208;18.216;2022-07-29T14:55:55;21.80;99.90
12682;DHT22;6405;59.208;18.216;2022-07-29T14:58:21;21.30;99.90
12682;DHT22;6405;59.208;18.216;2022-07-29T15:00:48;20.60;99.90
12682;DHT22;6405;59.208;18.216;2022-07-29T15:03:15;20.70;99.90
12682;DHT22;6405;59.208;18.216;2022-07-29T15:05:42;20.90;99.90
12682;DHT22;6405;59.208;18.216;2022-07-29T15:08:08;21.10;99.90
12682;DHT22;6405;59.208;18.216;2022-07-29T15:10:35;21.20;99.90
12682;DHT22;6405;59.208;18.216;2022-07-29T15:13:02;21.20;99.90
12682;DHT22;6405;59.208;18.216;2022-07-29T15:15:27;21.30;99.90
12682;DHT22;6405;59.208;18.216;2022-07-29T15:17:55;21.40;99.90
12682;DHT22;6405;59.208;18.216;2022-07-29T15:20:22;21.50;99.90
12682;DHT22;6405;59.208;18.216;2022-07-29T15:22:51;21.20;99.90
12682;DHT22;6405;59.208;18.216;2022-07-29T15:25:17;21.20;99.90
12682;DHT22;6405;59.208;18.216;2022-07-29T15:27:44;21.00;99.90
12682;DHT22;6405;59.208;18.216;2022-07-29T15:30:11;20.80;99.90
12682;DHT22;6405;59.208;18.216;2022-07-29T15:32:38;20.50;99.90
12682;DHT22;6405;59.208;18.216;2022-07-29T15:35:05;20.60;99.90
12682;DHT22;6405;59.208;18.216;2022-07-29T15:37:33;20.50;99.90
12682;DHT22;6405;59.208;18.216;2022-07-29T15:40:01;20.40;99.90
12682;DHT22;6405;59.208;18.216;2022-07-29T15:42:28;20.40;99.90
12682;DHT22;6405;59.208;18.216;2022-07-29T15:44:54;20.30;99.90
12682;DHT22;6405;59.208;18.216;2022-07-29T15:47:23;20.40;99.90
12682;DHT22;6405;59.208;18.216;2022-07-29T15:49:50;20.40;99.90
12682;DHT22;6405;59.208;18.216;2022-07-29T15:52:19;20.20;99.90
12682;DHT22;6405;59.208;18.216;2022-07-29T15:54:46;20.10;99.90
12682;DHT22;6405;59.208;18.216;2022-07-29T15:57:12;20.00;99.90
12682;DHT22;6405;59.208;18.216;2022-07-29T15:59:39;19.80;99.90
12682;DHT22;6405;59.208;18.216;2022-07-29T16:02:06;19.60;99.90
12682;DHT22;6405;59.208;18.216;2022-07-29T16:04:33;19.60;99.90
12682;DHT22;6405;59.208;18.216;2022-07-29T16:06:59;19.50;99.90
12682;DHT22;6405;59.208;18.216;2022-07-29T16:09:25;19.50;99.90
12682;DHT22;6405;59.208;18.216;2022-07-29T16:11:52;19.50;99.90
12682;DHT22;6405;59.208;18.216;2022-07-29T16:14:18;19.50;99.90
12682;DHT22;6405;59.208;18.216;2022-07-29T16:16:45;19.40;99.90
12682;DHT22;6405;59.208;18.216;2022-07-29T16:19:12;19.40;99.90
12682;DHT22;6405;59.208;18.216;2022-07-29T16:21:39;19.30;99.90
12682;DHT22;6405;59.208;18.216;2022-07-29T16:24:06;19.30;99.90
12682;DHT22;6405;59.208;18.216;2022-07-29T16:26:32;19.30;99.90
12682;DHT22;6405;59.208;18.216;2022-07-29T16:28:59;19.30;99.90
12682;DHT22;6405;59.208;18.216;2022-07-29T16:31:26;19.30;99.90
12682;DHT22;6405;59.208;18.216;2022-07-29T16:33:53;19.30;99.90
12682;DHT22;6405;59.208;18.216;2022-07-29T16:36:19;19.30;99.90
12682;DHT22;6405;59.208;18.216;2022-07-29T16:38:46;19.20;99.90